createdAt,value
2022-11-18T00:02:06.195Z,7.90
2022-11-18T00:04:32.790Z,7.23
2022-11-18T00:06:59.607Z,8.67
2022-11-18T00:09:26.186Z,7.10
2022-11-18T00:12:11.339Z,7.17
2022-11-18T00:14:37.885Z,6.67
2022-11-18T00:17:06.829Z,7.50
2022-11-18T00:19:34.761Z,6.20
2022-11-18T00:22:02.658Z,5.83
2022-11-18T00:24:29.655Z,6.33
2022-11-18T00:26:56.313Z,6.90
2022-11-18T00:29:23.958Z,5.60
2022-11-18T00:31:50.521Z,6.33
2022-11-18T00:34:18.920Z,5.00
2022-11-18T00:36:46.469Z,4.90
2022-11-18T00:39:16.739Z,6.00
2022-11-18T00:42:03.240Z,5.20
2022-11-18T00:44:30.911Z,5.10
2022-11-18T00:46:58.097Z,3.60
2022-11-18T00:49:24.721Z,4.37
2022-11-18T00:51:51.491Z,4.37
2022-11-18T00:54:18.802Z,4.80
2022-11-18T00:56:45.399Z,4.10
2022-11-18T00:59:11.991Z,3.83
2022-11-18T01:01:38.684Z,3.83
2022-11-18T01:04:05.325Z,4.17
2022-11-18T01:06:38.493Z,3.23
2022-11-18T01:09:05.070Z,3.87
2022-11-18T01:11:50.322Z,3.67
2022-11-18T01:14:17.520Z,3.33
2022-11-18T01:16:44.153Z,3.80
2022-11-18T01:19:11.626Z,3.53
2022-11-18T01:21:38.208Z,3.87
2022-11-18T01:24:05.218Z,3.50
2022-11-18T01:26:31.761Z,3.53
2022-11-18T01:28:58.658Z,4.13
2022-11-18T01:31:25.353Z,3.30
2022-11-18T01:33:52.169Z,3.50
2022-11-18T01:36:20.121Z,3.60
2022-11-18T01:38:47.210Z,3.47
2022-11-18T01:41:14.505Z,3.10
2022-11-18T01:43:59.202Z,3.43
2022-11-18T01:46:28.790Z,3.97
2022-11-18T01:49:08.032Z,4.23
2022-11-18T01:51:38.960Z,3.93
2022-11-18T01:54:09.903Z,3.90
2022-11-18T01:56:43.922Z,4.57
2022-11-18T01:59:18.158Z,4.30
2022-11-18T02:01:45.654Z,4.20
2022-11-18T02:04:13.948Z,5.30
2022-11-18T02:06:42.488Z,4.50
2022-11-18T02:09:09.469Z,4.63
2022-11-18T02:11:51.618Z,5.13
2022-11-18T02:14:40.229Z,4.60
2022-11-18T02:17:25.628Z,4.80
2022-11-18T02:20:30.133Z,5.30
2022-11-18T02:23:18.287Z,4.90
2022-11-18T02:26:11.240Z,5.90
2022-11-18T02:29:07.075Z,5.70
2022-11-18T02:31:45.067Z,4.93
2022-11-18T02:34:29.685Z,5.00
2022-11-18T02:37:08.096Z,5.70
2022-11-18T02:39:39.656Z,4.50
2022-11-18T02:42:11.856Z,6.17
2022-11-18T02:44:45.904Z,5.67
2022-11-18T02:47:15.459Z,6.60
2022-11-18T02:49:47.158Z,6.13
2022-11-18T02:52:16.806Z,6.43
2022-11-18T02:54:46.364Z,5.90
2022-11-18T02:57:15.276Z,6.70
2022-11-18T02:59:42.389Z,6.23
2022-11-18T03:02:15.977Z,7.20
2022-11-18T03:04:44.061Z,6.57
2022-11-18T03:07:19.999Z,6.33
2022-11-18T03:09:51.197Z,6.13
2022-11-18T03:12:20.737Z,6.90
2022-11-18T03:15:15.642Z,6.03
2022-11-18T03:17:56.988Z,7.43
2022-11-18T03:20:29.290Z,7.97
2022-11-18T03:23:14.194Z,6.50
2022-11-18T03:25:44.502Z,7.57
2022-11-18T03:28:38.676Z,7.03
2022-11-18T03:31:08.431Z,7.03
2022-11-18T03:33:40.454Z,6.70
2022-11-18T03:36:11.251Z,8.10
2022-11-18T03:38:43.372Z,7.43
2022-11-18T03:41:14.287Z,7.50
2022-11-18T03:43:50.211Z,7.60
2022-11-18T03:46:22.805Z,7.50
2022-11-18T03:48:55.856Z,7.00
2022-11-18T03:51:29.470Z,8.43
2022-11-18T03:54:17.570Z,7.33
2022-11-18T03:56:51.323Z,7.63
2022-11-18T03:59:23.955Z,9.30
2022-11-18T04:01:56.328Z,8.20
2022-11-18T04:04:25.426Z,7.13
2022-11-18T04:07:13.015Z,7.63
2022-11-18T04:09:47.823Z,8.07
2022-11-18T04:12:18.055Z,10.17
2022-11-18T04:14:47.955Z,8.87
2022-11-18T04:17:17.009Z,6.83
2022-11-18T04:19:43.701Z,8.20
2022-11-18T04:22:11.562Z,10.10
2022-11-18T04:24:38.616Z,8.20
2022-11-18T04:27:06.528Z,9.30
2022-11-18T04:29:33.754Z,9.53
2022-11-18T04:32:01.702Z,9.30
2022-11-18T04:34:28.693Z,9.33
2022-11-18T04:36:55.812Z,8.73
2022-11-18T04:39:22.883Z,8.80
2022-11-18T04:41:56.243Z,10.50
2022-11-18T04:44:31.125Z,8.10
2022-11-18T04:47:00.447Z,9.20
2022-11-18T04:49:28.011Z,9.60
2022-11-18T04:51:55.718Z,9.40
2022-11-18T04:54:24.228Z,9.00
2022-11-18T04:56:51.658Z,10.07
2022-11-18T04:59:21.524Z,10.93
2022-11-18T05:01:49.877Z,10.03
2022-11-18T05:04:20.919Z,10.20
2022-11-18T05:06:47.562Z,9.90
2022-11-18T05:09:14.698Z,9.90
2022-11-18T05:12:00.161Z,11.63
2022-11-18T05:14:27.892Z,9.80
2022-11-18T05:16:55.752Z,11.00
2022-11-18T05:19:23.300Z,10.37
2022-11-18T05:21:50.287Z,10.20
2022-11-18T05:24:16.890Z,10.43
2022-11-18T05:26:43.471Z,10.17
2022-11-18T05:29:10.494Z,10.23
2022-11-18T05:31:37.555Z,9.83
2022-11-18T05:34:04.292Z,9.37
2022-11-18T05:36:30.820Z,11.23
2022-11-18T05:39:00.145Z,11.27
2022-11-18T05:41:45.637Z,10.67
2022-11-18T05:44:12.266Z,11.50
2022-11-18T05:46:38.880Z,12.10
2022-11-18T05:49:05.791Z,11.43
2022-11-18T05:51:32.325Z,11.90
2022-11-18T05:53:59.067Z,12.63
2022-11-18T05:56:34.557Z,13.47
2022-11-18T05:59:01.210Z,10.43
2022-11-18T06:01:32.561Z,12.00
2022-11-18T06:04:00.472Z,12.80
2022-11-18T06:06:27.202Z,11.87
2022-11-18T06:09:05.153Z,13.10
2022-11-18T06:11:39.881Z,12.73
2022-11-18T06:14:10.999Z,13.00
2022-11-18T06:16:42.942Z,14.30
2022-11-18T06:19:09.647Z,12.87
2022-11-18T06:21:36.467Z,13.90
2022-11-18T06:24:03.501Z,13.10
2022-11-18T06:26:30.240Z,11.80
2022-11-18T06:28:57.530Z,13.80
2022-11-18T06:31:24.117Z,14.50
2022-11-18T06:33:50.877Z,14.00
2022-11-18T06:36:17.516Z,13.50
2022-11-18T06:38:44.074Z,13.23
2022-11-18T06:41:11.019Z,14.87
2022-11-18T06:43:42.040Z,13.43
2022-11-18T06:46:31.401Z,12.50
2022-11-18T06:48:58.965Z,12.90
2022-11-18T06:51:26.123Z,13.27
2022-11-18T06:53:53.482Z,11.77
2022-11-18T06:56:21.850Z,12.80
2022-11-18T06:58:53.200Z,13.13
2022-11-18T07:01:22.824Z,11.93
2022-11-18T07:03:49.658Z,12.10
2022-11-18T07:06:24.777Z,13.33
2022-11-18T07:08:52.465Z,13.70
2022-11-18T07:11:21.763Z,14.53
2022-11-18T07:13:48.541Z,15.03
2022-11-18T07:16:20.627Z,12.87
2022-11-18T07:18:48.915Z,13.83
2022-11-18T07:21:20.740Z,14.80
2022-11-18T07:23:48.125Z,13.00
2022-11-18T07:26:16.091Z,13.73
2022-11-18T07:28:43.195Z,13.83
2022-11-18T07:31:11.687Z,11.77
2022-11-18T07:33:39.407Z,13.00
2022-11-18T07:36:07.777Z,14.00
2022-11-18T07:38:35.001Z,12.63
2022-11-18T07:41:16.380Z,15.50
2022-11-18T07:43:43.704Z,14.43
2022-11-18T07:46:15.535Z,12.77
2022-11-18T07:48:43.557Z,14.97
2022-11-18T07:51:11.687Z,15.03
2022-11-18T07:53:38.652Z,14.73
2022-11-18T07:56:08.094Z,15.20
2022-11-18T07:58:35.704Z,15.90
2022-11-18T08:01:20.607Z,16.77
2022-11-18T08:03:47.780Z,14.77
2022-11-18T08:06:17.076Z,13.47
2022-11-18T08:08:44.526Z,15.07
2022-11-18T08:11:18.850Z,14.57
2022-11-18T08:13:48.353Z,12.70
2022-11-18T08:16:20.962Z,15.40
2022-11-18T08:18:47.734Z,12.00
2022-11-18T08:21:17.543Z,15.67
2022-11-18T08:23:49.865Z,13.70
2022-11-18T08:26:16.530Z,15.47
2022-11-18T08:28:44.376Z,13.93
2022-11-18T08:31:20.024Z,14.83
2022-11-18T08:33:47.017Z,15.70
2022-11-18T08:36:17.824Z,14.50
2022-11-18T08:38:44.800Z,16.27
2022-11-18T08:41:14.416Z,16.40
2022-11-18T08:43:41.900Z,14.47
2022-11-18T08:46:08.575Z,16.23
2022-11-18T08:48:35.185Z,15.77
2022-11-18T08:51:02.719Z,15.20
2022-11-18T08:53:29.318Z,15.23
2022-11-18T08:56:00.599Z,15.67
2022-11-18T08:58:28.259Z,18.03
2022-11-18T09:00:55.241Z,13.23
2022-11-18T09:03:22.726Z,15.90
2022-11-18T09:05:49.793Z,16.80
2022-11-18T09:08:17.333Z,17.53
2022-11-18T09:10:44.014Z,21.53
2022-11-18T09:13:53.390Z,20.40
2022-11-18T09:15:59.151Z,19.17
2022-11-18T09:18:26.452Z,31.00
2022-11-18T09:21:08.402Z,17.67
2022-11-18T09:23:37.838Z,18.97
2022-11-18T09:26:08.518Z,18.37
2022-11-18T09:28:35.473Z,20.10
2022-11-18T09:31:07.850Z,19.23
2022-11-18T09:33:35.583Z,17.43
2022-11-18T09:36:02.820Z,17.07
2022-11-18T09:38:30.837Z,16.60
2022-11-18T09:41:10.165Z,16.93
2022-11-18T09:44:14.429Z,16.03
2022-11-18T09:47:00.034Z,16.10
2022-11-18T09:49:30.809Z,13.33
2022-11-18T09:52:02.520Z,15.80
2022-11-18T09:54:35.731Z,17.20
2022-11-18T09:57:03.902Z,13.30
2022-11-18T09:59:32.462Z,14.50
2022-11-18T10:02:26.860Z,13.43
2022-11-18T10:04:56.125Z,14.40
2022-11-18T10:07:44.115Z,13.10
2022-11-18T10:10:17.190Z,13.90
2022-11-18T10:13:02.406Z,12.77
2022-11-18T10:15:53.818Z,11.20
2022-11-18T10:19:00.362Z,12.20
2022-11-18T10:21:54.683Z,13.40
2022-11-18T10:24:27.461Z,12.73
2022-11-18T10:26:56.537Z,12.80
2022-11-18T10:29:23.725Z,11.33
2022-11-18T10:32:08.266Z,12.13
2022-11-18T10:34:45.853Z,11.30
2022-11-18T10:37:38.732Z,10.90
2022-11-18T10:40:25.559Z,11.40
2022-11-18T10:42:52.190Z,16.90
2022-11-18T10:45:22.106Z,10.43
2022-11-18T10:48:15.925Z,11.27
2022-11-18T10:50:55.647Z,10.43
2022-11-18T10:53:34.602Z,19.43
2022-11-18T10:56:06.434Z,14.70
2022-11-18T10:58:37.717Z,13.30
2022-11-18T11:01:20.198Z,11.53
2022-11-18T11:04:04.599Z,10.30
2022-11-18T11:06:33.820Z,10.63
2022-11-18T11:09:21.962Z,11.93
2022-11-18T11:12:00.266Z,10.23
2022-11-18T11:14:47.055Z,9.47
2022-11-18T11:17:18.550Z,12.10
2022-11-18T11:20:04.305Z,11.03
2022-11-18T11:22:30.938Z,11.00
2022-11-18T11:24:58.019Z,13.60
2022-11-18T11:30:37.896Z,11.73
2022-11-18T11:33:14.134Z,12.80
2022-11-18T11:36:08.217Z,9.80
2022-11-18T11:39:11.617Z,11.73
2022-11-18T11:41:53.882Z,10.53
2022-11-18T11:44:39.115Z,10.80
2022-11-18T11:47:47.199Z,9.47
2022-11-18T11:50:59.983Z,11.07
2022-11-18T11:53:41.082Z,9.70
2022-11-18T11:56:35.560Z,9.70
2022-11-18T11:59:06.236Z,11.40
2022-11-18T12:02:03.647Z,11.30
2022-11-18T12:04:32.865Z,10.70
2022-11-18T12:07:00.372Z,11.83
2022-11-18T12:09:33.686Z,11.30
2022-11-18T12:12:36.334Z,11.73
2022-11-18T12:15:17.425Z,11.20
2022-11-18T12:18:11.917Z,11.83
2022-11-18T12:20:45.772Z,12.30
2022-11-18T12:23:23.254Z,11.10
2022-11-18T12:25:49.835Z,11.77
2022-11-18T12:28:43.855Z,10.70
2022-11-18T12:31:19.896Z,10.53
2022-11-18T12:33:54.177Z,11.63
2022-11-18T12:36:35.422Z,10.77
2022-11-18T12:39:37.435Z,9.13
2022-11-18T12:42:23.371Z,10.83
2022-11-18T12:44:52.262Z,12.70
2022-11-18T12:47:43.219Z,11.83
2022-11-18T12:50:12.829Z,12.30
2022-11-18T12:52:39.798Z,11.70
2022-11-18T12:55:18.457Z,12.20
2022-11-18T12:57:44.992Z,12.37
2022-11-18T13:00:17.860Z,11.93
2022-11-18T13:02:55.709Z,12.90
2022-11-18T13:05:25.293Z,12.67
2022-11-18T13:08:22.644Z,12.47
2022-11-18T13:11:14.522Z,13.50
2022-11-18T13:13:42.502Z,13.10
2022-11-18T13:16:38.452Z,12.27
2022-11-18T13:19:05.454Z,13.50
2022-11-18T13:21:50.805Z,14.40
2022-11-18T13:24:20.402Z,15.13
2022-11-18T13:26:52.949Z,11.70
2022-11-18T13:29:38.742Z,15.93
2022-11-18T13:32:24.049Z,14.10
2022-11-18T13:34:54.714Z,13.33
2022-11-18T13:37:24.083Z,13.97
2022-11-18T13:39:51.157Z,15.00
2022-11-18T13:42:25.658Z,15.37
2022-11-18T13:45:03.357Z,16.00
2022-11-18T13:47:51.790Z,15.10
2022-11-18T13:50:27.061Z,15.13
2022-11-18T13:53:05.316Z,15.93
2022-11-18T13:55:37.990Z,13.93
2022-11-18T13:58:30.793Z,15.73
2022-11-18T14:01:01.711Z,17.20
2022-11-18T14:03:34.566Z,14.97
2022-11-18T14:06:02.381Z,14.73
2022-11-18T14:08:34.697Z,16.90
2022-11-18T14:11:02.300Z,16.77
2022-11-18T14:13:49.199Z,12.50
2022-11-18T14:16:18.579Z,12.90
2022-11-18T14:18:47.482Z,12.20
2022-11-18T14:21:14.677Z,13.23
2022-11-18T14:23:43.346Z,12.10
2022-11-18T14:26:10.285Z,9.80
2022-11-18T14:28:38.300Z,12.20
2022-11-18T14:31:17.243Z,11.37
2022-11-18T14:34:05.745Z,13.07
2022-11-18T14:36:32.276Z,11.20
2022-11-18T14:39:19.763Z,13.20
2022-11-18T14:41:48.123Z,12.97
2022-11-18T14:44:15.683Z,13.27
2022-11-18T14:46:44.551Z,13.93
2022-11-18T14:49:15.820Z,10.87
2022-11-18T14:51:43.042Z,13.07
2022-11-18T14:54:23.835Z,12.90
2022-11-18T14:56:54.477Z,15.50
2022-11-18T14:59:21.449Z,13.87
2022-11-18T15:01:48.378Z,13.23
2022-11-18T15:04:17.175Z,12.93
2022-11-18T15:06:44.027Z,12.90
2022-11-18T15:09:12.456Z,14.10
2022-11-18T15:11:39.409Z,13.80
2022-11-18T15:14:05.984Z,10.33
2022-11-18T15:16:34.602Z,10.50
2022-11-18T15:19:03.950Z,12.73
2022-11-18T15:21:30.670Z,12.73
2022-11-18T15:23:58.070Z,10.70
2022-11-18T15:26:37.920Z,11.37
2022-11-18T15:29:05.373Z,11.33
2022-11-18T15:31:32.643Z,10.03
2022-11-18T15:34:05.057Z,10.77
2022-11-18T15:36:33.366Z,9.00
2022-11-18T15:39:00.523Z,8.27
2022-11-18T15:41:29.033Z,7.90
2022-11-18T15:43:58.207Z,7.53
2022-11-18T15:46:26.562Z,5.70
2022-11-18T15:48:58.186Z,6.70
2022-11-18T15:51:26.468Z,6.10
2022-11-18T15:53:53.670Z,7.30
2022-11-18T15:56:20.207Z,6.23
2022-11-18T15:58:58.622Z,5.70
2022-11-18T16:01:27.102Z,5.80
2022-11-18T16:03:54.200Z,6.37
2022-11-18T16:06:21.945Z,9.53
2022-11-18T16:08:49.765Z,6.57
2022-11-18T16:11:38.367Z,7.10
2022-11-18T16:14:06.557Z,5.40
2022-11-18T16:16:37.312Z,5.73
2022-11-18T16:19:07.459Z,4.63
2022-11-18T16:21:36.909Z,5.50
2022-11-18T16:24:06.065Z,5.23
2022-11-18T16:26:34.087Z,5.00
2022-11-18T16:29:01.528Z,5.40
2022-11-18T16:31:40.397Z,3.70
2022-11-18T16:34:21.979Z,3.93
2022-11-18T16:36:52.085Z,4.10
2022-11-18T16:39:24.874Z,5.30
2022-11-18T16:41:59.414Z,4.90
2022-11-18T16:44:28.943Z,5.47
2022-11-18T16:46:57.467Z,4.40
2022-11-18T16:49:27.439Z,3.60
2022-11-18T16:51:55.899Z,5.30
2022-11-18T16:54:27.268Z,4.03
2022-11-18T16:56:56.090Z,3.80
2022-11-18T16:59:30.963Z,5.50
2022-11-18T17:01:59.545Z,5.10
2022-11-18T17:04:28.610Z,5.23
2022-11-18T17:06:56.129Z,4.70
2022-11-18T17:09:24.672Z,4.70
2022-11-18T17:11:53.549Z,5.37
2022-11-18T17:14:21.913Z,6.30
2022-11-18T17:16:49.253Z,5.93
2022-11-18T17:19:18.919Z,10.60
2022-11-18T17:21:47.088Z,4.07
2022-11-18T17:24:16.080Z,7.13
2022-11-18T17:26:44.166Z,7.63
2022-11-18T17:29:11.928Z,9.10
2022-11-18T17:31:39.229Z,5.70
2022-11-18T17:34:06.000Z,4.80
2022-11-18T17:36:32.582Z,4.00
2022-11-18T17:39:00.336Z,4.47
2022-11-18T17:41:47.507Z,5.00
2022-11-18T17:44:16.601Z,3.50
2022-11-18T17:46:43.945Z,4.50
2022-11-18T17:49:15.915Z,3.87
2022-11-18T17:51:42.790Z,4.47
2022-11-18T17:54:10.226Z,4.20
2022-11-18T17:56:38.590Z,4.30
2022-11-18T17:59:05.166Z,4.60
2022-11-18T18:01:31.854Z,4.50
2022-11-18T18:03:58.942Z,3.53
2022-11-18T18:06:26.712Z,4.10
2022-11-18T18:08:59.756Z,3.93
2022-11-18T18:11:27.265Z,3.90
2022-11-18T18:14:12.429Z,3.80
2022-11-18T18:16:44.697Z,3.20
2022-11-18T18:19:14.203Z,3.90
2022-11-18T18:21:41.403Z,4.57
2022-11-18T18:24:08.949Z,4.03
2022-11-18T18:26:35.662Z,7.60
2022-11-18T18:29:03.458Z,3.23
2022-11-18T18:31:34.284Z,3.53
2022-11-18T18:34:04.422Z,4.00
2022-11-18T18:36:32.004Z,4.10
2022-11-18T18:38:59.442Z,4.17
2022-11-18T18:41:26.025Z,3.50
2022-11-18T18:43:52.845Z,3.20
2022-11-18T18:46:34.527Z,4.07
2022-11-18T18:49:13.640Z,4.20
2022-11-18T18:51:42.950Z,4.93
2022-11-18T18:54:11.798Z,4.27
2022-11-18T18:56:38.831Z,3.63
2022-11-18T18:59:06.299Z,4.23
2022-11-18T19:01:33.670Z,4.37
2022-11-18T19:04:03.614Z,3.63
2022-11-18T19:09:20.843Z,4.50
2022-11-18T19:12:06.862Z,3.47
2022-11-18T19:14:35.206Z,3.90
2022-11-18T19:17:09.606Z,4.30
2022-11-18T19:19:57.104Z,4.23
2022-11-18T19:22:24.273Z,3.73
2022-11-18T19:24:51.709Z,3.83
2022-11-18T19:27:19.798Z,4.53
2022-11-18T19:29:46.409Z,3.33
2022-11-18T19:32:13.496Z,3.70
2022-11-18T19:34:40.091Z,5.07
2022-11-18T19:37:06.623Z,4.70
2022-11-18T19:39:33.530Z,3.60
2022-11-18T19:42:00.099Z,3.60
2022-11-18T19:44:27.022Z,4.00
2022-11-18T19:46:53.630Z,4.30
2022-11-18T19:49:20.556Z,4.80
2022-11-18T19:51:47.415Z,5.57
2022-11-18T19:54:14.231Z,6.27
2022-11-18T19:56:40.879Z,4.60
2022-11-18T19:59:07.493Z,5.27
2022-11-18T20:01:34.283Z,4.77
2022-11-18T20:04:05.608Z,5.50
2022-11-18T20:06:34.705Z,4.30
2022-11-18T20:09:01.828Z,4.33
2022-11-18T20:11:28.684Z,4.60
2022-11-18T20:13:55.501Z,5.20
2022-11-18T20:16:24.757Z,4.90
2022-11-18T20:18:54.301Z,4.17
2022-11-18T20:21:22.235Z,5.30
2022-11-18T20:23:56.040Z,5.63
2022-11-18T20:26:26.117Z,4.60
2022-11-18T20:28:57.249Z,4.73
2022-11-18T20:31:25.509Z,5.40
2022-11-18T20:33:53.787Z,6.40
2022-11-18T20:36:28.735Z,5.37
2022-11-18T20:38:58.285Z,5.20
2022-11-18T20:41:25.925Z,4.47
2022-11-18T20:43:53.367Z,5.53
2022-11-18T20:46:22.251Z,4.90
2022-11-18T20:48:50.206Z,4.60
2022-11-18T20:51:19.874Z,4.37
2022-11-18T20:53:47.458Z,5.13
2022-11-18T20:56:18.514Z,4.80
2022-11-18T20:58:46.173Z,4.97
2022-11-18T21:01:12.865Z,5.13
2022-11-18T21:03:40.860Z,5.50
2022-11-18T21:06:13.977Z,6.20
2022-11-18T21:08:42.398Z,5.07
2022-11-18T21:11:11.393Z,5.00
2022-11-18T21:13:58.134Z,5.10
2022-11-18T21:16:26.075Z,5.60
2022-11-18T21:18:53.434Z,5.40
2022-11-18T21:21:38.756Z,5.23
2022-11-18T21:24:05.790Z,5.07
2022-11-18T21:26:34.000Z,4.50
2022-11-18T21:29:03.146Z,5.90
2022-11-18T21:31:31.387Z,4.57
2022-11-18T21:33:58.026Z,4.20
2022-11-18T21:36:26.309Z,6.00
2022-11-18T21:38:53.324Z,5.00
2022-11-18T21:41:20.261Z,4.70
2022-11-18T21:44:05.194Z,5.07
2022-11-18T21:46:35.165Z,4.20
2022-11-18T21:49:02.561Z,4.23
2022-11-18T21:51:32.055Z,4.70
2022-11-18T21:54:00.064Z,4.77
2022-11-18T21:56:29.330Z,4.80
2022-11-18T21:58:57.002Z,4.50
2022-11-18T22:01:29.389Z,5.03
2022-11-18T22:03:58.231Z,4.97
2022-11-18T22:06:26.149Z,5.23
2022-11-18T22:08:53.217Z,4.60
2022-11-18T22:11:22.659Z,4.37
2022-11-18T22:13:53.862Z,4.67
2022-11-18T22:16:22.939Z,4.27
2022-11-18T22:18:56.486Z,3.70
2022-11-18T22:21:26.687Z,5.30
2022-11-18T22:23:57.159Z,4.20
2022-11-18T22:26:23.855Z,4.40
2022-11-18T22:28:56.262Z,4.23
2022-11-18T22:31:25.185Z,4.80
2022-11-18T22:33:52.441Z,4.20
2022-11-18T22:36:22.609Z,3.57
2022-11-18T22:38:49.763Z,4.70
2022-11-18T22:41:38.231Z,4.20
2022-11-18T22:44:07.933Z,4.77
2022-11-18T22:46:36.201Z,3.50
2022-11-18T22:49:03.510Z,4.03
2022-11-18T22:51:30.354Z,4.33
2022-11-18T22:54:22.717Z,4.13
2022-11-18T22:57:06.042Z,4.87
2022-11-18T22:59:32.615Z,4.27
2022-11-18T23:01:59.299Z,4.20
2022-11-18T23:04:26.468Z,4.63
2022-11-18T23:06:53.081Z,4.20
2022-11-18T23:09:20.243Z,4.93
2022-11-18T23:12:06.022Z,4.20
2022-11-18T23:14:32.851Z,4.20
2022-11-18T23:17:00.444Z,4.43
2022-11-18T23:19:27.012Z,4.37
2022-11-18T23:21:53.582Z,4.20
2022-11-18T23:24:20.151Z,3.43
2022-11-18T23:26:47.518Z,4.90
2022-11-18T23:29:15.698Z,4.00
2022-11-18T23:31:44.493Z,4.07
2022-11-18T23:34:12.986Z,4.50
2022-11-18T23:36:40.452Z,3.97
2022-11-18T23:39:07.164Z,4.33
2022-11-18T23:41:34.371Z,3.90
2022-11-18T23:44:01.188Z,4.40
2022-11-18T23:46:27.825Z,4.20
2022-11-18T23:48:55.115Z,4.73
2022-11-18T23:51:23.520Z,4.53
2022-11-18T23:53:56.402Z,4.20
2022-11-18T23:56:25.685Z,4.40
2022-11-18T23:58:54.084Z,4.03
